Time;durP1;ratioP1;P1;durP2;ratioP2;P2;SDS_P1;SDS_P2;PMS_P1;PMS_P2;Temp;Humidity;BMP_temperature;BMP_pressure;BME280_temperature;BME280_humidity;BME280_pressure;Samples;Min_cycle;Max_cycle;Signal;HPM_P1;HPM_P2
2023/04/23 00:02:10;;;;;;;8.35;5.47;;;;;;;11.69;nan;-21267.75;4992843;28;20200;-72
2023/04/23 00:04:37;;;;;;;8.80;5.28;;;;;;;11.53;nan;-19027.63;4993432;28;20215;-72
2023/04/23 00:07:03;;;;;;;10.10;5.25;;;;;;;11.55;nan;-18388.53;4993162;28;20219;-73
2023/04/23 00:09:30;;;;;;;8.75;5.25;;;;;;;11.45;nan;-19345.59;4992778;28;20230;-70
2023/04/23 00:11:57;;;;;;;8.48;5.05;;;;;;;11.88;nan;-18394.81;4992977;28;20169;-70
2023/04/23 00:14:22;;;;;;;8.82;5.63;;;;;;;11.51;nan;-18707.63;4992889;28;20168;-73
2023/04/23 00:16:48;;;;;;;11.45;6.28;;;;;;;11.27;nan;-19022.47;4992595;28;20176;-71
2023/04/23 00:19:13;;;;;;;7.72;5.55;;;;;;;11.20;nan;-19021.00;4992887;28;20216;-70
2023/04/23 00:21:39;;;;;;;8.60;5.57;;;;;;;11.17;nan;-19339.81;4999365;28;20692;-71
2023/04/23 00:24:05;;;;;;;11.60;6.50;;;;;;;11.41;nan;-19664.28;4991999;28;20173;-71
2023/04/23 00:26:30;;;;;;;8.50;5.30;;;;;;;11.35;nan;-20301.75;4992671;28;20240;-73
2023/04/23 00:28:56;;;;;;;9.35;5.43;;;;;;;11.35;nan;-20301.88;4992867;28;20225;-71
2023/04/23 00:31:21;;;;;;;9.52;5.75;;;;;;;11.47;nan;-19985.03;4991116;28;20231;-74
2023/04/23 00:33:47;;;;;;;13.35;6.28;;;;;;;11.06;nan;-20614.72;4992506;28;20550;-72
2023/04/23 00:36:12;;;;;;;10.10;6.03;;;;;;;10.94;nan;-21250.25;4991938;28;20185;-71
2023/04/23 00:38:38;;;;;;;12.95;6.40;;;;;;;11.06;nan;-21891.28;4992209;28;20172;-72
2023/04/23 00:41:03;;;;;;;13.00;6.65;;;;;;;10.86;nan;-22205.34;4992197;28;20200;-74
2023/04/23 00:43:29;;;;;;;8.48;5.40;;;;;;;11.16;nan;-22531.94;4992687;28;20183;-72
2023/04/23 00:45:55;;;;;;;11.30;6.80;;;;;;;10.89;nan;-22525.03;4991770;28;20187;-71
2023/04/23 00:48:21;;;;;;;13.00;7.28;;;;;;;10.69;nan;-22838.72;4990692;28;20315;-73
2023/04/23 00:50:46;;;;;;;11.02;6.43;;;;;;;10.92;nan;-23163.63;4991909;28;20668;-71
2023/04/23 00:53:12;;;;;;;10.52;6.30;;;;;;;11.17;nan;-23170.28;4992052;28;20266;-70
2023/04/23 00:55:37;;;;;;;11.27;5.93;;;;;;;10.84;nan;-23161.63;4992143;28;20585;-70
2023/04/23 00:58:03;;;;;;;10.60;6.05;;;;;;;11.06;nan;-23486.28;4992142;28;20192;-72
2023/04/23 01:00:28;;;;;;;9.95;6.05;;;;;;;10.87;nan;-23799.94;4991810;28;20193;-70
2023/04/23 01:02:54;;;;;;;10.68;6.63;;;;;;;10.58;nan;-23792.06;4992033;28;20247;-68
2023/04/23 01:05:22;;;;;;;8.35;5.53;;;;;;;11.27;nan;-23491.88;4992530;28;20176;-70
2023/04/23 01:07:48;;;;;;;12.65;6.05;;;;;;;11.13;nan;-23488.19;4998859;28;20169;-67
2023/04/23 01:10:13;;;;;;;9.95;5.65;;;;;;;10.93;nan;-22845.00;4996859;28;20199;-73
2023/04/23 01:12:39;;;;;;;10.68;4.88;;;;;;;11.21;nan;-22533.09;4994633;28;20183;-69
2023/04/23 01:15:06;;;;;;;8.88;5.25;;;;;;;11.39;nan;-20302.75;4995920;28;20180;-71
2023/04/23 01:17:33;;;;;;;7.47;4.57;;;;;;;11.29;nan;-17425.06;4997300;28;20173;-67
2023/04/23 01:19:58;;;;;;;9.98;4.65;;;;;;;11.21;nan;-16784.44;4995883;28;20177;-73
2023/04/23 01:22:24;;;;;;;6.85;4.55;;;;;;;11.38;nan;-15187.97;5003145;28;20640;-70
2023/04/23 01:24:50;;;;;;;6.85;4.82;;;;;;;11.41;nan;-11987.63;4808860;28;20906;-70
2023/04/23 01:27:18;;;;;;;7.50;4.68;;;;;;;11.33;nan;-10705.94;4648739;28;20188;-70
2023/04/23 01:29:45;;;;;;;7.40;4.30;;;;;;;11.50;nan;-10066.09;4995489;28;20157;-70
2023/04/23 01:32:11;;;;;;;8.35;5.10;;;;;;;11.41;nan;-8783.69;4995639;28;20181;-73
2023/04/23 01:34:37;;;;;;;7.13;4.38;;;;;;;11.31;nan;-7501.13;4996157;28;20249;-73
2023/04/23 01:37:03;;;;;;;8.75;4.80;;;;;;;11.19;nan;-7180.44;4995567;28;20177;-73
2023/04/23 01:39:29;;;;;;;6.63;4.40;;;;;;;10.97;nan;-8782.34;4995484;28;20177;-67
2023/04/23 01:41:55;;;;;;;5.72;4.05;;;;;;;11.18;nan;-10384.72;4995199;28;20201;-72
2023/04/23 01:44:21;;;;;;;7.68;5.20;;;;;;;11.22;nan;-11345.69;4995161;28;20173;-71
2023/04/23 01:46:46;;;;;;;9.23;4.60;;;;;;;11.07;nan;-11024.50;4995594;28;20198;-71
2023/04/23 01:49:12;;;;;;;9.68;5.10;;;;;;;10.91;nan;-11023.41;4995730;28;20320;-72
2023/04/23 01:51:38;;;;;;;10.98;4.78;;;;;;;10.63;nan;-11661.34;4995509;28;20157;-71
2023/04/23 01:54:03;;;;;;;7.90;4.18;;;;;;;10.49;nan;-12619.50;4995009;28;20725;-72
2023/04/23 01:56:29;;;;;;;5.25;3.90;;;;;;;10.73;nan;-13581.00;4995305;28;20168;-71
2023/04/23 01:58:55;;;;;;;8.05;4.82;;;;;;;10.62;nan;-13260.22;4995127;28;20273;-73
2023/04/23 02:01:21;;;;;;;7.00;4.55;;;;;;;10.55;nan;-13898.75;4994755;28;20707;-70
2023/04/23 02:03:48;;;;;;;7.28;4.82;;;;;;;10.33;nan;-13896.19;4993734;28;20331;-72
2023/04/23 02:06:14;;;;;;;12.40;4.68;;;;;;;10.17;nan;-14533.19;4994898;28;20184;-70
2023/04/23 02:08:40;;;;;;;7.90;4.88;;;;;;;10.07;nan;-14851.16;4994986;28;20175;-71
2023/04/23 02:11:08;;;;;;;11.18;5.03;;;;;;;10.32;nan;-14215.53;4995054;28;20570;-73
2023/04/23 02:13:33;;;;;;;8.00;5.47;;;;;;;10.27;nan;-14534.31;4994805;28;20180;-71
2023/04/23 02:15:59;;;;;;;10.07;5.40;;;;;;;10.13;nan;-14532.63;4994970;28;20177;-71
2023/04/23 02:18:24;;;;;;;9.73;5.10;;;;;;;10.10;nan;-14212.94;4994754;28;20226;-71
2023/04/23 02:20:50;;;;;;;10.63;5.20;;;;;;;10.04;nan;-14531.50;4996961;28;20193;-68
2023/04/23 02:23:15;;;;;;;9.07;5.60;;;;;;;9.99;nan;-14850.09;4997605;28;20231;-69
2023/04/23 02:25:42;;;;;;;7.85;5.15;;;;;;;9.96;nan;-15168.97;4994701;28;20259;-71
2023/04/23 02:28:07;;;;;;;6.88;5.25;;;;;;;10.28;nan;-15811.88;4994412;28;20177;-71
2023/04/23 02:30:34;;;;;;;16.63;5.28;;;;;;;9.99;nan;-16126.78;4994871;28;20177;-73
2023/04/23 02:32:59;;;;;;;7.93;4.65;;;;;;;10.06;nan;-15808.72;4994809;28;20181;-73
2023/04/23 02:35:25;;;;;;;8.00;4.85;;;;;;;10.12;nan;-15809.59;4995065;28;20695;-70
2023/04/23 02:37:53;;;;;;;11.98;4.78;;;;;;;9.83;nan;-15486.22;4992943;28;20185;-70
2023/04/23 02:40:18;;;;;;;11.15;5.82;;;;;;;9.99;nan;-15488.53;4994109;28;20191;-72
2023/04/23 02:42:43;;;;;;;8.93;5.93;;;;;;;10.24;nan;-13895.19;4989627;28;21406;-69
2023/04/23 02:45:09;;;;;;;9.27;5.70;;;;;;;10.04;nan;-14850.81;4998123;28;20197;-73
2023/04/23 02:47:35;;;;;;;10.23;5.53;;;;;;;9.85;nan;-14848.34;4986278;28;20225;-69
2023/04/23 02:50:02;;;;;;;12.75;7.43;;;;;;;10.08;nan;-15170.59;4992706;28;20184;-71
2023/04/23 02:52:27;;;;;;;8.30;5.75;;;;;;;9.72;nan;-15165.69;4994411;28;20280;-71
2023/04/23 02:54:52;;;;;;;8.90;5.75;;;;;;;9.78;nan;-15166.50;4993841;28;20212;-69
2023/04/23 02:57:18;;;;;;;8.95;5.50;;;;;;;9.85;nan;-15167.41;4993811;28;20539;-76
2023/04/23 02:59:43;;;;;;;9.02;5.53;;;;;;;10.07;nan;-15170.47;4994301;28;20639;-68
2023/04/23 03:02:09;;;;;;;9.57;5.63;;;;;;;9.75;nan;-14847.09;4994280;28;20245;-70
2023/04/23 03:04:35;;;;;;;9.75;5.43;;;;;;;9.66;nan;-14845.91;4993964;28;20585;-74
2023/04/23 03:07:00;;;;;;;8.35;4.93;;;;;;;9.89;nan;-15487.13;4994204;28;20259;-73
2023/04/23 03:09:25;;;;;;;11.57;6.60;;;;;;;10.13;nan;-14851.94;4994171;28;20253;-69
2023/04/23 03:11:51;;;;;;;8.52;5.65;;;;;;;10.14;nan;-14213.41;4993420;28;20230;-67
2023/04/23 03:14:16;;;;;;;15.55;6.28;;;;;;;9.76;nan;-14208.91;4993766;28;20177;-73
2023/04/23 03:16:42;;;;;;;9.53;5.87;;;;;;;9.59;nan;-15163.94;4993607;28;20655;-74
2023/04/23 03:19:07;;;;;;;8.93;5.65;;;;;;;9.77;nan;-15804.53;4993570;28;20180;-70
2023/04/23 03:21:32;;;;;;;10.15;5.95;;;;;;;9.50;nan;-16119.41;4999378;28;20209;-70
2023/04/23 03:23:58;;;;;;;9.10;5.70;;;;;;;9.42;nan;-16118.22;4995549;28;20173;-70
2023/04/23 03:26:23;;;;;;;11.47;5.40;;;;;;;9.19;nan;-15796.00;4992041;28;20188;-71
2023/04/23 03:28:49;;;;;;;10.35;5.57;;;;;;;9.38;nan;-15479.97;4993806;28;20611;-71
2023/04/23 03:31:14;;;;;;;10.68;5.35;;;;;;;9.52;nan;-15162.97;4993620;28;20176;-71
2023/04/23 03:33:39;;;;;;;8.38;4.95;;;;;;;9.97;nan;-13253.44;4992782;28;20181;-69
2023/04/23 03:36:05;;;;;;;9.60;5.22;;;;;;;9.64;nan;-12611.63;4993175;28;20722;-71
2023/04/23 03:38:30;;;;;;;7.72;5.20;;;;;;;9.77;nan;-10696.34;4992997;28;20176;-70
2023/04/23 03:40:56;;;;;;;5.22;3.78;;;;;;;9.89;nan;-9738.19;4992908;28;20243;-71
2023/04/23 03:43:21;;;;;;;7.75;4.85;;;;;;;9.74;nan;-12931.88;4993514;28;20196;-70
2023/04/23 03:45:47;;;;;;;7.77;5.30;;;;;;;9.40;nan;-15161.34;4993255;28;20176;-71
2023/04/23 03:48:12;;;;;;;9.33;5.10;;;;;;;8.98;nan;-16748.56;4993079;28;20251;-74
2023/04/23 03:50:39;;;;;;;12.73;5.40;;;;;;;9.34;nan;-15798.16;4993384;28;20192;-72
2023/04/23 03:53:06;;;;;;;8.20;5.37;;;;;;;9.86;nan;-15486.72;4993139;28;20211;-70
2023/04/23 03:55:31;;;;;;;9.13;5.07;;;;;;;10.09;nan;-14532.13;4991424;28;20201;-73
2023/04/23 03:58:00;;;;;;;9.97;5.17;;;;;;;9.62;nan;-15164.34;4993249;28;20216;-74
2023/04/23 04:00:26;;;;;;;9.33;4.63;;;;;;;9.30;nan;-15797.63;4993289;28;20168;-73
2023/04/23 04:02:51;;;;;;;8.47;5.03;;;;;;;9.59;nan;-16439.66;4991511;28;20188;-72
2023/04/23 04:05:16;;;;;;;8.13;5.25;;;;;;;9.44;nan;-16118.50;4992372;28;20231;-72
2023/04/23 04:07:42;;;;;;;8.02;4.63;;;;;;;9.70;nan;-15484.44;4992257;28;20177;-70
2023/04/23 04:10:08;;;;;;;7.97;5.15;;;;;;;9.53;nan;-13568.03;4992033;28;20179;-72
2023/04/23 04:12:33;;;;;;;7.93;4.78;;;;;;;11.22;nan;-6539.16;4992536;28;20271;-72
2023/04/23 04:14:58;;;;;;;9.25;4.45;;;;;;;11.25;nan;-2688.59;4992349;28;20177;-73
2023/04/23 04:17:24;;;;;;;9.35;4.90;;;;;;;12.11;nan;2143.66;4992343;28;20256;-73
2023/04/23 04:19:49;;;;;;;8.27;4.50;;;;;;;12.96;nan;14431.50;4991133;28;20176;-70
2023/04/23 04:22:15;;;;;;;5.43;4.00;;;;;;;13.58;nan;37284.94;4999117;28;20678;-70
2023/04/23 04:24:40;;;;;;;7.45;4.43;;;;;;;14.33;nan;53200.97;4992284;28;20177;-69
2023/04/23 04:27:06;;;;;;;5.70;3.75;;;;;;;14.90;nan;56982.53;4997580;28;20177;-67
2023/04/23 04:29:32;;;;;;;8.52;4.07;;;;;;;15.19;nan;58823.03;4999443;28;20169;-74
2023/04/23 04:31:58;;;;;;;5.57;4.10;;;;;;;15.18;nan;59374.84;4992651;28;20188;-68
2023/04/23 04:34:24;;;;;;;5.05;3.83;;;;;;;14.79;nan;59532.47;4991213;28;20184;-71
2023/04/23 04:36:52;;;;;;;5.35;3.75;;;;;;;14.50;nan;59249.88;4992092;28;20188;-72
2023/04/23 04:39:21;;;;;;;6.45;3.90;;;;;;;14.48;nan;59100.72;4992416;28;20185;-73
2023/04/23 04:41:47;;;;;;;6.15;3.78;;;;;;;14.21;nan;59053.19;4992389;28;20620;-73
2023/04/23 04:44:13;;;;;;;7.47;3.92;;;;;;;14.36;nan;59247.38;4992591;28;20184;-71
2023/04/23 04:46:39;;;;;;;5.45;3.33;;;;;;;14.08;nan;59281.38;4996154;28;20176;-71
2023/04/23 04:49:08;;;;;;;5.32;3.30;;;;;;;13.57;nan;59095.16;4996690;28;20224;-71
2023/04/23 04:51:35;;;;;;;5.30;3.90;;;;;;;13.30;nan;58478.56;4996039;28;20176;-72
2023/04/23 04:54:01;;;;;;;5.32;3.92;;;;;;;12.81;nan;56610.53;4996476;28;20177;-71
2023/04/23 04:56:26;;;;;;;6.05;4.55;;;;;;;12.92;nan;49945.84;4996392;28;20179;-71
2023/04/23 04:58:52;;;;;;;7.35;4.57;;;;;;;12.58;nan;43359.91;4996254;28;20239;-72
2023/04/23 05:01:19;;;;;;;8.68;4.35;;;;;;;12.74;nan;28689.78;4996179;28;20668;-73
2023/04/23 05:03:45;;;;;;;8.05;4.22;;;;;;;12.95;nan;30652.56;4988771;28;20208;-71
2023/04/23 05:06:10;;;;;;;7.53;4.00;;;;;;;12.65;nan;25437.41;4985975;28;20581;-70
2023/04/23 05:08:35;;;;;;;7.43;4.45;;;;;;;12.52;nan;28351.78;4984624;28;20173;-69
2023/04/23 05:11:02;;;;;;;6.00;3.97;;;;;;;12.20;nan;28658.31;4987067;28;20264;-69
2023/04/23 05:13:28;;;;;;;8.38;4.38;;;;;;;12.78;nan;33569.44;4985638;28;20272;-69
2023/04/23 05:15:53;;;;;;;6.90;4.40;;;;;;;12.13;nan;27680.56;4985062;28;20298;-70
2023/04/23 05:18:19;;;;;;;7.53;4.50;;;;;;;12.25;nan;27687.41;4986537;28;20184;-70
2023/04/23 05:20:44;;;;;;;10.43;4.85;;;;;;;12.64;nan;30308.28;4976273;28;20678;-71
2023/04/23 05:23:10;;;;;;;8.32;4.50;;;;;;;12.48;nan;26077.28;4979664;28;20193;-69
2023/04/23 05:25:35;;;;;;;11.68;4.88;;;;;;;12.83;nan;32596.94;4976732;28;20169;-71
2023/04/23 05:28:01;;;;;;;7.57;4.20;;;;;;;12.89;nan;37158.50;4976351;28;20551;-70
2023/04/23 05:30:26;;;;;;;7.40;4.55;;;;;;;13.06;nan;42685.72;4981536;28;20172;-69
2023/04/23 05:32:52;;;;;;;7.70;4.43;;;;;;;13.31;nan;43384.59;4985753;28;20629;-72
2023/04/23 05:35:17;;;;;;;7.65;4.60;;;;;;;13.71;nan;47524.06;4983007;28;20553;-72
2023/04/23 05:37:42;;;;;;;11.73;4.43;;;;;;;13.46;nan;48005.00;4978131;28;20298;-72
2023/04/23 05:40:08;;;;;;;9.30;5.00;;;;;;;13.76;nan;52763.59;4974451;28;20679;-73
2023/04/23 05:42:35;;;;;;;6.13;3.80;;;;;;;14.24;nan;54548.19;4975082;28;20217;-69
2023/04/23 05:45:02;;;;;;;6.50;4.25;;;;;;;14.37;nan;56287.97;4974270;28;20249;-71
2023/04/23 05:47:28;;;;;;;5.85;3.90;;;;;;;14.76;nan;57692.00;4975485;28;20220;-71
2023/04/23 05:49:56;;;;;;;4.53;3.58;;;;;;;14.61;nan;57843.44;4975340;28;20181;-70
2023/04/23 05:52:21;;;;;;;7.43;4.97;;;;;;;14.14;nan;57783.81;4975525;28;20193;-68
2023/04/23 05:54:47;;;;;;;9.30;3.95;;;;;;;14.48;nan;58029.75;4975532;28;20170;-71
2023/04/23 05:57:12;;;;;;;5.25;4.07;;;;;;;14.51;nan;57855.81;4975175;28;20177;-70
2023/04/23 05:59:38;;;;;;;10.32;4.32;;;;;;;14.39;nan;58091.97;4975118;28;20249;-71
2023/04/23 06:02:03;;;;;;;7.32;4.30;;;;;;;14.66;nan;58084.56;4975125;28;20209;-68
2023/04/23 06:04:28;;;;;;;14.43;4.68;;;;;;;14.24;nan;57829.38;4975366;28;20551;-71
2023/04/23 06:06:54;;;;;;;7.47;3.95;;;;;;;14.29;nan;57780.84;4975078;28;20186;-68
2023/04/23 06:09:19;;;;;;;7.30;4.22;;;;;;;14.41;nan;57696.72;4975223;28;20545;-70
2023/04/23 06:11:45;;;;;;;7.53;4.25;;;;;;;14.47;nan;57933.69;4975567;28;20275;-69
2023/04/23 06:14:10;;;;;;;7.80;4.07;;;;;;;14.13;nan;56781.50;4975185;28;20172;-71
2023/04/23 06:16:36;;;;;;;6.15;4.00;;;;;;;14.62;nan;55682.69;4975384;28;20162;-69
2023/04/23 06:19:02;;;;;;;9.68;4.15;;;;;;;14.67;nan;55698.13;4974911;28;20162;-72
2023/04/23 06:21:28;;;;;;;5.05;3.88;;;;;;;14.41;nan;56515.41;4977119;28;20201;-69
2023/04/23 06:23:53;;;;;;;6.18;4.20;;;;;;;14.78;nan;57173.25;4977800;28;20248;-67
2023/04/23 06:26:19;;;;;;;7.00;4.00;;;;;;;14.88;nan;57358.03;4974967;28;20177;-72
2023/04/23 06:28:45;;;;;;;8.35;4.00;;;;;;;14.94;nan;57572.53;4974784;28;20181;-69
2023/04/23 06:31:12;;;;;;;7.22;4.60;;;;;;;15.01;nan;57814.41;4974778;28;20220;-70
2023/04/23 06:33:37;;;;;;;6.78;4.32;;;;;;;14.95;nan;57761.72;4974530;28;20170;-69
2023/04/23 06:36:04;;;;;;;6.28;3.85;;;;;;;14.98;nan;58021.91;4974371;28;20177;-69
2023/04/23 06:38:30;;;;;;;8.68;4.68;;;;;;;15.11;nan;58394.72;4974728;28;20669;-68
2023/04/23 06:40:55;;;;;;;8.77;5.07;;;;;;;15.19;nan;58491.34;4974526;28;20193;-68
2023/04/23 06:43:21;;;;;;;8.10;5.30;;;;;;;15.45;nan;58480.94;4974386;28;20641;-70
2023/04/23 06:45:46;;;;;;;8.63;5.10;;;;;;;15.98;nan;58539.88;4974522;28;20176;-70
2023/04/23 06:48:11;;;;;;;9.27;4.85;;;;;;;16.27;nan;58808.31;4974043;28;20225;-70
2023/04/23 06:50:38;;;;;;;8.27;4.53;;;;;;;16.12;nan;59070.13;4972779;28;20201;-71
2023/04/23 06:53:04;;;;;;;10.48;5.22;;;;;;;16.17;nan;59433.63;4974569;28;20169;-70
2023/04/23 06:55:30;;;;;;;9.35;5.05;;;;;;;16.60;nan;59544.25;4974074;28;20224;-70
2023/04/23 06:57:55;;;;;;;9.00;4.40;;;;;;;16.75;nan;59832.06;4974361;28;20220;-73
2023/04/23 07:00:22;;;;;;;7.82;4.13;;;;;;;16.48;nan;59985.22;4973976;28;20216;-71
2023/04/23 07:02:47;;;;;;;7.72;4.60;;;;;;;17.01;nan;60120.28;4973938;28;20641;-73
2023/04/23 07:05:13;;;;;;;9.80;5.45;;;;;;;17.37;nan;60449.38;4974064;28;20321;-72
2023/04/23 07:07:39;;;;;;;8.63;4.82;;;;;;;17.56;nan;60641.03;4973454;28;20182;-70
2023/04/23 07:10:06;;;;;;;10.80;5.22;;;;;;;17.66;nan;60838.19;4973796;28;20548;-73
2023/04/23 07:12:31;;;;;;;10.98;4.88;;;;;;;17.78;nan;60977.16;4973462;28;20653;-68
2023/04/23 07:14:57;;;;;;;10.77;4.45;;;;;;;18.17;nan;61017.84;4982688;28;20176;-72
2023/04/23 07:17:22;;;;;;;10.63;4.88;;;;;;;18.15;nan;61000.06;4975936;28;20240;-75
2023/04/23 07:19:48;;;;;;;11.02;5.00;;;;;;;18.22;nan;61127.44;4993291;28;20180;-72
2023/04/23 07:22:13;;;;;;;8.75;5.10;;;;;;;17.97;nan;61115.38;4996547;28;20714;-72
2023/04/23 07:24:39;;;;;;;9.15;4.82;;;;;;;17.34;nan;60941.72;4993380;28;20589;-70
2023/04/23 07:27:05;;;;;;;6.93;4.90;;;;;;;17.22;nan;61016.00;4993200;28;20176;-71
2023/04/23 07:29:30;;;;;;;8.43;4.72;;;;;;;16.94;nan;60912.84;4991896;28;20227;-72
2023/04/23 07:31:56;;;;;;;9.48;5.03;;;;;;;16.41;nan;60806.91;4992054;28;20560;-71
2023/04/23 07:34:21;;;;;;;8.55;4.85;;;;;;;16.83;nan;60843.19;4986358;28;20622;-71
2023/04/23 07:36:47;;;;;;;10.70;4.50;;;;;;;16.96;nan;60860.34;4981688;28;20606;-70
2023/04/23 07:39:12;;;;;;;7.97;4.90;;;;;;;17.13;nan;60841.28;4987079;28;20183;-71
2023/04/23 07:41:37;;;;;;;7.65;4.30;;;;;;;17.13;nan;60830.94;4989536;28;20200;-71
2023/04/23 07:44:03;;;;;;;10.27;5.07;;;;;;;16.90;nan;60809.75;4983477;28;20338;-70
2023/04/23 07:46:28;;;;;;;8.23;4.47;;;;;;;16.90;nan;60840.72;4986166;28;20189;-72
2023/04/23 07:48:54;;;;;;;6.63;4.18;;;;;;;16.62;nan;60805.25;4991047;28;20239;-73
2023/04/23 07:51:21;;;;;;;8.18;4.38;;;;;;;16.52;nan;60940.44;4992652;28;20208;-72
2023/04/23 07:53:49;;;;;;;8.05;4.53;;;;;;;16.75;nan;60829.59;4991689;28;20203;-72
2023/04/23 07:56:15;;;;;;;9.93;4.57;;;;;;;16.63;nan;60798.66;4992570;28;20204;-73
2023/04/23 07:58:41;;;;;;;7.68;4.57;;;;;;;16.87;nan;60899.81;4992624;28;20181;-75
2023/04/23 08:01:06;;;;;;;6.13;4.00;;;;;;;16.60;nan;60792.69;4992462;28;20200;-70
2023/04/23 08:03:31;;;;;;;7.43;4.22;;;;;;;16.69;nan;60791.94;4992254;28;20184;-72
2023/04/23 08:05:57;;;;;;;7.72;4.38;;;;;;;16.01;nan;60672.44;4992336;28;20204;-69
2023/04/23 08:08:22;;;;;;;8.43;5.15;;;;;;;15.59;nan;60528.72;4992613;28;20176;-70
2023/04/23 08:10:48;;;;;;;7.15;4.97;;;;;;;16.02;nan;60583.97;4992208;28;20231;-71
2023/04/23 08:13:13;;;;;;;7.85;4.45;;;;;;;16.05;nan;60738.75;4992658;28;20169;-72
2023/04/23 08:15:38;;;;;;;7.10;4.47;;;;;;;16.36;nan;60794.13;4992613;28;20176;-71
2023/04/23 08:18:04;;;;;;;8.35;4.80;;;;;;;16.25;nan;60614.28;4992831;28;20558;-74
2023/04/23 08:20:31;;;;;;;9.75;4.85;;;;;;;16.25;nan;60616.84;4995949;28;20252;-72
2023/04/23 08:22:56;;;;;;;7.28;4.50;;;;;;;16.49;nan;60971.16;4991084;28;20218;-72
2023/04/23 08:25:22;;;;;;;8.73;4.60;;;;;;;17.18;nan;60952.72;4992161;28;20207;-72
2023/04/23 08:27:47;;;;;;;6.43;4.00;;;;;;;17.16;nan;60991.19;4992302;28;20177;-70
2023/04/23 08:30:12;;;;;;;6.53;4.50;;;;;;;17.03;nan;60984.31;4991964;28;20779;-67
2023/04/23 08:32:39;;;;;;;8.57;4.57;;;;;;;17.12;nan;60969.19;4992213;28;20183;-71
2023/04/23 08:35:05;;;;;;;8.48;5.28;;;;;;;17.08;nan;60990.50;4990731;28;20180;-72
2023/04/23 08:37:30;;;;;;;7.30;4.93;;;;;;;17.62;nan;61086.88;4990936;28;20202;-73
2023/04/23 08:39:56;;;;;;;10.20;4.30;;;;;;;17.79;nan;61278.00;4991927;28;20165;-72
2023/04/23 08:42:51;;;;;;;7.80;4.53;;;;;;;17.56;nan;61028.44;4991600;28;20219;-70
2023/04/23 08:45:18;;;;;;;7.90;4.40;;;;;;;17.81;nan;61153.63;4991740;28;20176;-69
2023/04/23 08:47:43;;;;;;;9.63;4.30;;;;;;;18.12;nan;61180.84;4991840;28;20227;-72
2023/04/23 08:50:11;;;;;;;7.13;4.55;;;;;;;17.54;nan;60956.44;4991870;28;20176;-70
2023/04/23 08:52:45;;;;;;;8.45;4.70;;;;;;;17.93;nan;61046.25;4991894;28;20177;-68
2023/04/23 08:55:13;;;;;;;8.20;4.30;;;;;;;17.99;nan;61080.88;4991947;28;20189;-72
2023/04/23 08:57:40;;;;;;;6.97;4.43;;;;;;;18.15;nan;61346.53;4991344;28;20644;-71
2023/04/23 09:00:09;;;;;;;8.98;4.00;;;;;;;18.29;nan;61256.31;4991855;28;20168;-70
2023/04/23 09:02:42;;;;;;;6.45;4.18;;;;;;;18.55;nan;61371.03;4991995;28;20207;-70
2023/04/23 09:05:08;;;;;;;6.78;4.43;;;;;;;17.13;nan;61156.16;4991917;28;20203;-68
2023/04/23 09:07:34;;;;;;;11.10;4.40;;;;;;;16.85;nan;61062.69;4991713;28;20227;-69
2023/04/23 09:10:01;;;;;;;6.15;3.78;;;;;;;16.25;nan;61026.66;4991220;28;20173;-71
2023/04/23 09:12:27;;;;;;;7.22;3.90;;;;;;;16.72;nan;61063.53;4991703;28;20645;-70
2023/04/23 09:14:52;;;;;;;11.25;4.18;;;;;;;17.16;nan;61164.13;4991667;28;20204;-70
2023/04/23 09:17:19;;;;;;;8.68;3.67;;;;;;;16.76;nan;61145.44;4993852;28;20165;-73
2023/04/23 09:19:45;;;;;;;5.93;3.53;;;;;;;16.62;nan;61163.75;4994677;28;20684;-73
2023/04/23 09:22:11;;;;;;;5.15;3.50;;;;;;;16.99;nan;61206.91;4991563;28;20292;-68
2023/04/23 09:24:40;;;;;;;5.50;3.38;;;;;;;17.12;nan;61237.63;4991492;28;20173;-72
2023/04/23 09:27:06;;;;;;;4.95;3.60;;;;;;;17.71;nan;61364.59;4991650;28;20205;-69
2023/04/23 09:29:31;;;;;;;5.13;3.25;;;;;;;17.99;nan;61388.47;4990650;28;20204;-62
2023/04/23 09:32:08;;;;;;;5.30;3.50;;;;;;;17.77;nan;61384.28;4993792;28;20169;-62
2023/04/23 09:34:38;;;;;;;8.10;3.00;;;;;;;18.08;nan;61347.50;4995440;28;20216;-61
2023/04/23 09:37:06;;;;;;;5.03;3.42;;;;;;;18.21;nan;61390.09;4988734;28;20251;-65
2023/04/23 09:39:33;;;;;;;8.27;3.28;;;;;;;16.53;nan;61310.88;4978961;28;20177;-65
2023/04/23 09:42:06;;;;;;;5.75;3.05;;;;;;;16.51;nan;61401.44;4994687;28;20212;-63
2023/04/23 09:44:35;;;;;;;4.78;3.30;;;;;;;16.66;nan;61288.91;4995009;28;20169;-64
2023/04/23 09:47:13;;;;;;;5.80;3.17;;;;;;;16.86;nan;61352.22;4989196;28;20200;-63
2023/04/23 09:49:48;;;;;;;4.30;3.03;;;;;;;17.55;nan;61419.38;4995155;28;20487;-63
2023/04/23 09:52:14;;;;;;;8.75;3.15;;;;;;;17.62;nan;61440.22;4995601;28;20176;-61
2023/04/23 09:54:40;;;;;;;4.25;3.10;;;;;;;17.75;nan;61498.31;4995218;28;20173;-61
2023/04/23 09:57:07;;;;;;;4.78;2.83;;;;;;;17.89;nan;61477.97;4995112;28;20188;-62
2023/04/23 09:59:37;;;;;;;4.07;2.92;;;;;;;17.93;nan;61544.53;4994217;28;20256;-60
2023/04/23 10:02:05;;;;;;;4.40;2.72;;;;;;;17.80;nan;61489.03;4993730;28;20698;-62
2023/04/23 10:04:31;;;;;;;5.70;3.40;;;;;;;17.30;nan;61463.94;4994077;28;20640;-60
2023/04/23 10:07:02;;;;;;;5.45;3.08;;;;;;;17.75;nan;61459.56;4993851;28;20177;-62
2023/04/23 10:09:28;;;;;;;5.18;2.90;;;;;;;18.14;nan;61500.53;4993948;28;20169;-62
2023/04/23 10:11:58;;;;;;;6.88;3.40;;;;;;;18.62;nan;61583.41;4993944;28;20183;-62
2023/04/23 10:14:25;;;;;;;5.07;3.20;;;;;;;19.00;nan;61638.84;4994434;28;20179;-62
2023/04/23 10:17:02;;;;;;;5.43;3.53;;;;;;;19.09;nan;61659.41;4994525;28;20185;-61
2023/04/23 10:19:28;;;;;;;4.50;3.13;;;;;;;18.19;nan;61602.44;4994895;28;20625;-60
2023/04/23 10:22:06;;;;;;;4.78;2.67;;;;;;;17.90;nan;61536.53;4994784;28;20618;-61
2023/04/23 10:24:33;;;;;;;5.28;3.22;;;;;;;18.16;nan;61549.34;4994498;28;20259;-62
2023/04/23 10:27:02;;;;;;;4.57;2.83;;;;;;;18.22;nan;61533.44;4994425;28;20260;-62
2023/04/23 10:29:30;;;;;;;6.00;3.22;;;;;;;18.31;nan;61579.28;4994789;28;20624;-60
2023/04/23 10:31:58;;;;;;;4.55;3.08;;;;;;;18.21;nan;61526.56;4994535;28;20227;-63
2023/04/23 10:34:25;;;;;;;4.45;2.90;;;;;;;18.62;nan;61556.94;4994504;28;20354;-62
2023/04/23 10:36:52;;;;;;;4.95;2.95;;;;;;;18.65;nan;61615.25;4994627;28;20523;-60
2023/04/23 10:39:22;;;;;;;4.10;2.85;;;;;;;18.92;nan;61650.47;4994425;28;20176;-61
2023/04/23 10:41:48;;;;;;;3.80;2.67;;;;;;;18.20;nan;61549.28;4993889;28;20192;-61
2023/04/23 10:44:17;;;;;;;5.40;2.58;;;;;;;18.39;nan;61557.31;4993526;28;20682;-62
2023/04/23 10:46:53;;;;;;;4.43;2.70;;;;;;;18.01;nan;61567.09;4994045;28;20625;-60
2023/04/23 10:49:21;;;;;;;7.72;2.58;;;;;;;18.16;nan;61580.94;4991044;28;20188;-61
2023/04/23 10:51:47;;;;;;;9.43;2.70;;;;;;;17.88;nan;61534.28;4984140;28;20177;-63
2023/04/23 10:54:17;;;;;;;3.95;2.92;;;;;;;17.66;nan;61520.25;4984821;28;20177;-61
2023/04/23 10:56:44;;;;;;;4.82;2.97;;;;;;;17.76;nan;61509.75;4994341;28;20632;-62
2023/04/23 10:59:20;;;;;;;5.32;3.03;;;;;;;17.63;nan;61485.84;4994532;28;20184;-61
2023/04/23 11:01:47;;;;;;;3.65;3.03;;;;;;;18.03;nan;61555.88;4993847;28;20196;-61
2023/04/23 11:04:20;;;;;;;4.70;2.85;;;;;;;18.45;nan;61559.47;4993791;28;20180;-64
2023/04/23 11:06:46;;;;;;;3.33;2.50;;;;;;;18.67;nan;61792.94;4993829;28;20204;-61
2023/04/23 11:09:37;;;;;;;3.75;2.58;;;;;;;19.40;nan;61720.50;4994192;28;20207;-61
2023/04/23 11:12:06;;;;;;;4.03;2.60;;;;;;;19.27;nan;61723.88;4993902;28;20240;-61
2023/04/23 11:14:45;;;;;;;4.95;3.00;;;;;;;18.50;nan;61598.78;4993774;28;20267;-61
2023/04/23 11:17:12;;;;;;;6.18;2.95;;;;;;;18.36;nan;61601.03;4993493;28;20203;-62
2023/04/23 11:19:39;;;;;;;6.38;2.97;;;;;;;18.35;nan;61571.47;4993643;28;20241;-62
2023/04/23 11:22:07;;;;;;;6.95;3.10;;;;;;;18.73;nan;61608.78;4994085;28;20211;-61
2023/04/23 11:24:44;;;;;;;4.13;2.88;;;;;;;18.56;nan;61597.28;4993391;28;20181;-61
2023/04/23 11:27:17;;;;;;;4.97;2.80;;;;;;;18.66;nan;61631.34;4989672;28;20176;-61
2023/04/23 11:29:44;;;;;;;3.70;2.85;;;;;;;18.24;nan;61566.16;4986116;28;20177;-61
2023/04/23 11:32:12;;;;;;;6.10;2.70;;;;;;;18.23;nan;61643.19;4987232;28;20715;-62
2023/04/23 11:34:42;;;;;;;3.75;2.55;;;;;;;18.22;nan;61551.53;4977699;28;20589;-62
2023/04/23 11:37:12;;;;;;;4.68;2.83;;;;;;;18.66;nan;61608.06;4992660;28;20196;-62
2023/04/23 11:39:42;;;;;;;6.38;2.97;;;;;;;18.54;nan;61636.97;4985840;28;20176;-61
2023/04/23 11:42:15;;;;;;;4.30;2.90;;;;;;;19.05;nan;61695.75;4982130;28;20580;-62
2023/04/23 11:44:42;;;;;;;5.38;3.00;;;;;;;19.34;nan;61710.53;4976473;28;20690;-61